createdAt,value
2018-09-19T00:00:52.375Z,91.85
2018-09-19T00:01:52.366Z,92.33
2018-09-19T00:02:52.367Z,92.29
2018-09-19T00:03:52.249Z,92.38
2018-09-19T00:04:52.365Z,91.80
2018-09-19T00:05:52.247Z,92.05
2018-09-19T00:06:52.129Z,92.24
2018-09-19T00:07:52.146Z,91.85
2018-09-19T00:08:52.011Z,92.05
2018-09-19T00:09:52.022Z,91.66
2018-09-19T00:10:52.014Z,91.80
2018-09-19T00:11:51.895Z,92.05
2018-09-19T00:12:51.893Z,91.95
2018-09-19T00:13:51.775Z,92.14
2018-09-19T00:14:51.713Z,91.85
2018-09-19T00:15:51.897Z,91.85
2018-09-19T00:16:51.712Z,92.24
2018-09-19T00:17:51.594Z,92.24
2018-09-19T00:18:51.590Z,91.75
2018-09-19T00:19:51.473Z,92.43
2018-09-19T00:20:51.431Z,92.24
2018-09-19T00:21:51.439Z,92.43
2018-09-19T00:22:51.310Z,92.24
2018-09-19T00:23:51.320Z,92.05
2018-09-19T00:24:51.237Z,91.75
2018-09-19T00:25:51.237Z,91.85
2018-09-19T00:26:51.187Z,91.75
2018-09-19T00:27:51.074Z,92.52
2018-09-19T00:28:51.077Z,92.24
2018-09-19T00:29:50.998Z,91.75
2018-09-19T00:30:50.999Z,92.14
2018-09-19T00:31:50.957Z,92.14
2018-09-19T00:32:50.877Z,92.33
2018-09-19T00:33:50.844Z,91.95
2018-09-19T00:34:50.762Z,92.14
2018-09-19T00:35:50.761Z,92.52
2018-09-19T00:36:50.722Z,92.14
2018-09-19T00:37:50.644Z,91.56
2018-09-19T00:38:50.604Z,92.33
2018-09-19T00:39:50.522Z,92.72
2018-09-19T00:40:50.532Z,92.14
2018-09-19T00:41:50.492Z,92.14
2018-09-19T00:42:50.407Z,91.56
2018-09-19T00:43:50.405Z,92.43
2018-09-19T00:44:50.385Z,92.14
2018-09-19T00:45:50.289Z,92.14
2018-09-19T00:46:50.250Z,92.14
2018-09-19T00:47:50.170Z,92.43
2018-09-19T00:48:50.130Z,92.72
2018-09-19T00:49:50.130Z,92.14
2018-09-19T00:50:50.141Z,92.14
2018-09-19T00:51:50.015Z,91.85
2018-09-19T00:52:49.935Z,92.24
2018-09-19T00:53:49.898Z,92.14
2018-09-19T00:54:49.938Z,92.43
2018-09-19T00:55:49.819Z,92.33
2018-09-19T00:56:49.776Z,92.72
2018-09-19T00:57:49.776Z,92.33
2018-09-19T00:58:49.665Z,92.24
2018-09-19T00:59:49.703Z,93.01
2018-09-19T01:00:49.582Z,92.81
2018-09-19T01:01:49.540Z,92.91
2018-09-19T01:02:49.542Z,92.72
2018-09-19T01:03:49.469Z,92.33
2018-09-19T01:04:49.462Z,93.01
2018-09-19T01:05:49.424Z,92.72
2018-09-19T01:06:49.310Z,92.62
2018-09-19T01:07:49.307Z,92.91
2018-09-19T01:08:49.315Z,92.81
2018-09-19T01:09:49.194Z,92.86
2018-09-19T01:10:49.190Z,92.86
2018-09-19T01:11:49.099Z,92.96
2018-09-19T01:12:49.071Z,92.67
2018-09-19T01:13:49.075Z,92.77
2018-09-19T01:14:48.953Z,92.77
2018-09-19T01:15:48.996Z,92.77
2018-09-19T01:16:48.873Z,92.86
2018-09-19T01:17:48.841Z,92.86
2018-09-19T01:18:48.837Z,92.48
2018-09-19T01:19:48.740Z,92.48
2018-09-19T01:20:48.751Z,92.86
2018-09-19T01:21:48.638Z,92.48
2018-09-19T01:22:48.603Z,93.05
2018-09-19T01:23:48.602Z,92.67
2018-09-19T01:24:48.522Z,92.72
2018-09-19T01:25:48.544Z,93.15
2018-09-19T01:26:48.415Z,92.96
2018-09-19T01:27:48.367Z,92.91
2018-09-19T01:28:48.416Z,92.63
2018-09-19T01:29:48.280Z,92.91
2018-09-19T01:30:48.250Z,93.20
2018-09-19T01:31:48.249Z,92.63
2018-09-19T01:32:48.156Z,93.30
2018-09-19T01:33:48.179Z,92.82
2018-09-19T01:34:48.062Z,93.49
2018-09-19T01:35:48.014Z,93.39
2018-09-19T01:36:48.013Z,93.10
2018-09-19T01:37:47.932Z,93.10
2018-09-19T01:38:47.942Z,93.39
2018-09-19T01:39:47.825Z,93.39
2018-09-19T01:40:47.793Z,93.39
2018-09-19T01:41:47.822Z,92.72
2018-09-19T01:42:47.706Z,93.39
2018-09-19T01:43:47.666Z,93.20
2018-09-19T01:44:47.672Z,93.68
2018-09-19T01:45:47.555Z,93.59
2018-09-19T01:46:47.584Z,93.59
2018-09-19T01:47:47.465Z,93.30
2018-09-19T01:48:47.434Z,93.49
2018-09-19T01:49:47.439Z,93.39
2018-09-19T01:50:47.349Z,93.20
2018-09-19T01:51:47.348Z,93.49
2018-09-19T01:52:47.228Z,93.30
2018-09-19T01:53:47.200Z,93.30
2018-09-19T01:54:47.192Z,93.49
2018-09-19T01:55:47.114Z,93.59
2018-09-19T01:56:47.108Z,93.97
2018-09-19T01:57:46.992Z,93.87
2018-09-19T01:58:46.961Z,93.77
2018-09-19T01:59:46.958Z,93.68
2018-09-19T02:00:46.957Z,94.07
2018-09-19T02:01:46.837Z,93.49
2018-09-19T02:02:46.843Z,93.77
2018-09-19T02:03:46.724Z,93.49
2018-09-19T02:04:46.720Z,93.68
2018-09-19T02:05:46.721Z,93.68
2018-09-19T02:06:46.603Z,93.68
2018-09-19T02:07:46.607Z,94.45
2018-09-19T02:08:46.491Z,94.45
2018-09-19T02:09:46.484Z,94.45
2018-09-19T02:10:46.485Z,94.26
2018-09-19T02:11:46.367Z,94.16
2018-09-19T02:12:46.369Z,94.01
2018-09-19T02:13:46.283Z,94.26
2018-09-19T02:14:46.249Z,94.40
2018-09-19T02:15:46.252Z,94.40
2018-09-19T02:16:46.137Z,94.31
2018-09-19T02:17:46.133Z,94.21
2018-09-19T02:18:46.051Z,94.49
2018-09-19T02:19:46.018Z,94.21
2018-09-19T02:20:46.019Z,94.21
2018-09-19T02:21:45.940Z,94.31
2018-09-19T02:22:45.900Z,94.21
2018-09-19T02:23:45.818Z,94.31
2018-09-19T02:24:45.779Z,94.11
2018-09-19T02:25:45.822Z,94.31
2018-09-19T02:26:45.784Z,94.40
2018-09-19T02:27:45.698Z,93.92
2018-09-19T02:28:45.654Z,94.31
2018-09-19T02:29:45.544Z,94.59
2018-09-19T02:30:45.666Z,94.45
2018-09-19T02:31:45.468Z,94.35
2018-09-19T02:32:45.426Z,94.26
2018-09-19T02:33:45.337Z,94.35
2018-09-19T02:34:45.347Z,94.45
2018-09-19T02:35:45.431Z,94.16
2018-09-19T02:36:45.227Z,94.35
2018-09-19T02:37:45.197Z,94.07
2018-09-19T02:38:45.197Z,94.45
2018-09-19T02:39:45.107Z,94.26
2018-09-19T02:40:45.199Z,94.45
2018-09-19T02:41:45.078Z,93.59
2018-09-19T02:42:44.956Z,94.31
2018-09-19T02:43:44.957Z,94.12
2018-09-19T02:44:44.871Z,94.02
2018-09-19T02:45:44.848Z,93.82
2018-09-19T02:46:44.840Z,94.02
2018-09-19T02:47:44.840Z,94.02
2018-09-19T02:48:44.725Z,94.12
2018-09-19T02:49:44.722Z,94.21
2018-09-19T02:50:44.724Z,94.21
2018-09-19T02:51:44.724Z,94.12
2018-09-19T02:52:44.607Z,94.21
2018-09-19T02:53:44.609Z,94.40
2018-09-19T02:54:44.489Z,93.44
2018-09-19T02:55:44.490Z,93.49
2018-09-19T02:56:44.489Z,94.17
2018-09-19T02:57:44.371Z,94.54
2018-09-19T02:58:44.371Z,94.26
2018-09-19T02:59:44.371Z,93.63
2018-09-19T03:00:44.253Z,93.44
2018-09-19T03:01:44.256Z,93.73
2018-09-19T03:02:44.139Z,93.78
2018-09-19T03:03:44.139Z,93.78
2018-09-19T03:05:44.025Z,93.54
2018-09-19T03:06:44.022Z,94.45
2018-09-19T03:07:44.024Z,93.78
2018-09-19T03:08:43.902Z,93.59
2018-09-19T03:09:43.782Z,93.59
2018-09-19T03:10:43.785Z,94.17
2018-09-19T03:11:43.788Z,93.78
2018-09-19T03:12:43.792Z,93.59
2018-09-19T03:13:43.666Z,93.88
2018-09-19T03:14:43.669Z,94.17
2018-09-19T03:15:43.549Z,94.17
2018-09-19T03:16:43.549Z,93.49
2018-09-19T03:17:43.837Z,93.01
2018-09-19T03:18:43.551Z,93.49
2018-09-19T03:19:43.431Z,94.35
2018-09-19T03:20:43.436Z,93.68
2018-09-19T03:21:43.319Z,93.40
2018-09-19T03:22:43.195Z,93.21
2018-09-19T03:23:43.196Z,93.49
2018-09-19T03:24:43.323Z,92.91
2018-09-19T03:25:43.087Z,92.82
2018-09-19T03:26:43.080Z,93.30
2018-09-19T03:27:42.969Z,93.21
2018-09-19T03:28:42.962Z,93.30
2018-09-19T03:29:43.081Z,92.91
2018-09-19T03:30:42.844Z,93.01
2018-09-19T03:31:42.853Z,92.54
2018-09-19T03:32:42.846Z,93.40
2018-09-19T03:33:42.725Z,93.59
2018-09-19T03:34:42.846Z,93.01
2018-09-19T03:35:42.609Z,93.30
2018-09-19T03:36:42.610Z,93.59
2018-09-19T03:37:42.613Z,93.40
2018-09-19T03:38:42.489Z,94.54
2018-09-19T03:39:42.492Z,93.88
2018-09-19T03:40:42.372Z,93.97
2018-09-19T03:41:42.377Z,93.21
2018-09-19T03:42:42.375Z,93.01
2018-09-19T03:43:42.255Z,93.59
2018-09-19T03:44:42.255Z,92.82
2018-09-19T03:45:42.137Z,93.68
2018-09-19T03:46:42.148Z,93.11
2018-09-19T03:47:42.137Z,93.68
2018-09-19T03:48:42.022Z,93.68
2018-09-19T03:49:42.019Z,92.91
2018-09-19T03:50:41.902Z,92.82
2018-09-19T03:51:41.842Z,93.21
2018-09-19T03:52:42.021Z,93.21
2018-09-19T03:53:41.784Z,92.72
2018-09-19T03:54:41.719Z,92.72
2018-09-19T03:55:41.665Z,91.57
2018-09-19T03:56:41.722Z,93.01
2018-09-19T03:57:41.666Z,93.11
2018-09-19T03:58:41.606Z,91.86
2018-09-19T03:59:41.437Z,92.44
2018-09-19T04:00:41.365Z,92.44
2018-09-19T04:01:41.319Z,92.44
2018-09-19T04:02:41.324Z,92.44
2018-09-19T04:03:41.324Z,92.24
2018-09-19T04:04:41.202Z,92.44
2018-09-19T04:05:41.128Z,93.11
2018-09-19T04:06:41.085Z,93.11
2018-09-19T04:07:41.202Z,93.49
2018-09-19T04:08:41.016Z,93.40
2018-09-19T04:09:41.011Z,92.91
2018-09-19T04:10:40.895Z,92.82
2018-09-19T04:11:40.850Z,93.21
2018-09-19T04:12:40.849Z,93.21
2018-09-19T04:13:40.772Z,93.30
2018-09-19T04:14:40.776Z,92.54
2018-09-19T04:15:40.648Z,92.82
2018-09-19T04:16:40.610Z,93.11
2018-09-19T04:17:40.782Z,93.21
2018-09-19T04:18:40.540Z,93.30
2018-09-19T04:19:40.499Z,92.82
2018-09-19T04:20:40.499Z,93.01
2018-09-19T04:21:40.409Z,93.21
2018-09-19T04:22:40.413Z,92.72
2018-09-19T04:23:40.381Z,93.11
2018-09-19T04:24:40.258Z,92.91
2018-09-19T04:25:40.258Z,92.72
2018-09-19T04:26:40.144Z,93.21
2018-09-19T04:27:40.144Z,91.67
2018-09-19T04:28:40.141Z,92.82
2018-09-19T04:29:40.019Z,91.63
2018-09-19T04:30:40.021Z,92.20
2018-09-19T04:31:40.023Z,92.10
2018-09-19T04:32:39.904Z,92.54
2018-09-19T04:33:39.820Z,91.34
2018-09-19T04:34:39.787Z,91.63
2018-09-19T04:35:39.784Z,91.43
2018-09-19T04:36:39.784Z,92.24
2018-09-19T04:37:39.667Z,92.30
2018-09-19T04:38:39.588Z,91.63
2018-09-19T04:39:39.551Z,92.58
2018-09-19T04:40:39.549Z,92.20
2018-09-19T04:41:39.790Z,92.10
2018-09-19T04:42:39.430Z,92.77
2018-09-19T04:43:39.351Z,91.82
2018-09-19T04:44:39.314Z,92.30
2018-09-19T04:45:39.318Z,92.68
2018-09-19T04:46:39.314Z,91.91
2018-09-19T04:47:39.203Z,91.63
2018-09-19T04:48:39.112Z,91.53
2018-09-19T04:49:39.123Z,92.68
2018-09-19T04:50:39.121Z,93.16
2018-09-19T04:51:39.009Z,92.68
2018-09-19T04:52:38.969Z,92.58
2018-09-19T04:53:38.961Z,92.30
2018-09-19T04:54:38.842Z,92.20
2018-09-19T04:55:38.875Z,91.72
2018-09-19T04:56:38.753Z,92.39
2018-09-19T04:57:38.726Z,92.39
2018-09-19T04:58:38.661Z,91.53
2018-09-19T04:59:38.609Z,92.49
2018-09-19T05:00:38.660Z,92.30
2018-09-19T05:01:38.528Z,91.63
2018-09-19T05:02:38.491Z,92.39
2018-09-19T05:03:38.427Z,91.53
2018-09-19T05:04:38.372Z,92.30
2018-09-19T05:05:38.453Z,92.30
2018-09-19T05:06:38.292Z,92.49
2018-09-19T05:07:38.262Z,92.30
2018-09-19T05:08:38.188Z,92.49
2018-09-19T05:09:38.196Z,92.30
2018-09-19T05:10:38.145Z,92.10
2018-09-19T05:11:38.059Z,92.10
2018-09-19T05:12:38.065Z,92.30
2018-09-19T05:13:37.946Z,92.20
2018-09-19T05:14:37.949Z,92.58
2018-09-19T05:15:37.901Z,92.77
2018-09-19T05:16:37.822Z,92.58
2018-09-19T05:17:37.831Z,92.97
2018-09-19T05:18:37.711Z,92.49
2018-09-19T05:19:37.682Z,92.58
2018-09-19T05:20:37.707Z,92.58
2018-09-19T05:21:37.586Z,92.30
2018-09-19T05:22:37.551Z,92.77
2018-09-19T05:23:37.559Z,92.30
2018-09-19T05:24:37.434Z,93.06
2018-09-19T05:25:37.436Z,92.77
2018-09-19T05:26:37.351Z,92.87
2018-09-19T05:27:37.353Z,92.39
2018-09-19T05:28:37.234Z,92.58
2018-09-19T05:29:37.206Z,92.77
2018-09-19T05:30:37.202Z,93.35
2018-09-19T05:31:37.172Z,93.06
2018-09-19T05:32:37.117Z,92.77
2018-09-19T05:33:36.995Z,93.54
2018-09-19T05:34:36.961Z,93.63
2018-09-19T05:35:36.962Z,93.54
2018-09-19T05:36:36.873Z,93.83
2018-09-19T05:37:36.879Z,93.93
2018-09-19T05:38:36.762Z,93.73
2018-09-19T05:39:36.725Z,93.63
2018-09-19T05:40:36.729Z,93.06
2018-09-19T05:41:36.639Z,93.54
2018-09-19T05:42:36.642Z,93.06
2018-09-19T05:43:36.524Z,92.77
2018-09-19T05:44:36.491Z,93.35
2018-09-19T05:45:36.491Z,93.35
2018-09-19T05:46:36.465Z,93.06
2018-09-19T05:47:36.412Z,93.06
2018-09-19T05:48:36.293Z,93.26
2018-09-19T05:49:36.255Z,93.26
2018-09-19T05:50:36.255Z,93.26
2018-09-19T05:51:36.296Z,92.77
2018-09-19T05:52:36.181Z,93.26
2018-09-19T05:53:36.184Z,92.77
2018-09-19T05:54:36.040Z,92.39
2018-09-19T05:55:36.024Z,92.68
2018-09-19T05:56:36.021Z,93.06
2018-09-19T05:57:35.904Z,92.68
2018-09-19T05:58:35.904Z,92.44
2018-09-19T05:59:35.787Z,93.11
2018-09-19T06:00:35.787Z,93.49
2018-09-19T06:01:35.705Z,93.11
2018-09-19T06:02:35.709Z,92.63
2018-09-19T06:03:35.671Z,92.72
2018-09-19T06:04:35.553Z,93.88
2018-09-19T06:05:35.563Z,94.35
2018-09-19T06:06:35.465Z,93.97
2018-09-19T06:07:35.534Z,94.07
2018-09-19T06:08:35.434Z,94.45
2018-09-19T06:09:35.354Z,94.45
2018-09-19T06:10:35.315Z,94.07
2018-09-19T06:11:35.229Z,94.54
2018-09-19T06:12:35.198Z,94.54
2018-09-19T06:13:35.259Z,94.07
2018-09-19T06:14:35.198Z,94.07
2018-09-19T06:15:35.085Z,94.17
2018-09-19T06:16:34.996Z,93.88
2018-09-19T06:17:35.082Z,94.07
2018-09-19T06:18:34.964Z,94.17
2018-09-19T06:19:34.874Z,94.35
2018-09-19T06:20:34.845Z,94.45
2018-09-19T06:21:34.760Z,95.03
2018-09-19T06:22:34.847Z,94.45
2018-09-19T06:23:34.727Z,95.03
2018-09-19T06:24:34.848Z,94.98
2018-09-19T06:25:34.610Z,95.07
2018-09-19T06:26:34.610Z,94.54
2018-09-19T06:27:34.612Z,95.07
2018-09-19T06:28:34.613Z,95.07
2018-09-19T06:29:34.612Z,94.98
2018-09-19T06:30:34.619Z,95.07
2018-09-19T06:31:34.375Z,94.98
2018-09-19T06:32:34.376Z,94.98
2018-09-19T06:33:34.408Z,94.98
2018-09-19T06:34:34.512Z,95.26
2018-09-19T06:35:34.258Z,95.46
2018-09-19T06:36:34.261Z,94.98
2018-09-19T06:37:34.155Z,95.26
2018-09-19T06:38:34.159Z,95.21
2018-09-19T06:39:34.144Z,94.93
2018-09-19T06:40:34.053Z,95.31
2018-09-19T06:41:33.904Z,95.12
2018-09-19T06:42:33.906Z,95.75
2018-09-19T06:43:33.907Z,95.50
2018-09-19T06:44:33.928Z,95.55
2018-09-19T06:45:33.848Z,95.45
2018-09-19T06:46:33.790Z,95.65
2018-09-19T06:47:33.671Z,95.55
2018-09-19T06:48:33.671Z,95.75
2018-09-19T06:49:33.552Z,95.40
2018-09-19T06:50:33.555Z,95.98
2018-09-19T06:51:33.559Z,95.31
2018-09-19T06:52:33.473Z,95.98
2018-09-19T06:53:33.438Z,95.70
2018-09-19T06:54:33.318Z,96.27
2018-09-19T06:55:33.438Z,96.47
2018-09-19T06:56:34.398Z,96.66
2018-09-19T06:57:33.202Z,96.42
2018-09-19T06:58:33.201Z,96.32
2018-09-19T06:59:33.092Z,96.32
2018-09-19T07:00:33.085Z,96.61
2018-09-19T07:01:33.204Z,96.22
2018-09-19T07:02:32.979Z,96.42
2018-09-19T07:03:32.969Z,96.47
2018-09-19T07:04:32.968Z,96.56
2018-09-19T07:05:32.852Z,96.66
2018-09-19T07:06:32.849Z,96.66
2018-09-19T07:07:32.734Z,95.98
2018-09-19T07:08:32.862Z,96.70
2018-09-19T07:09:32.732Z,96.51
2018-09-19T07:10:32.637Z,96.22
2018-09-19T07:11:32.614Z,96.61
2018-09-19T07:12:32.495Z,95.74
2018-09-19T07:13:32.737Z,96.03
2018-09-19T07:14:32.498Z,95.79
2018-09-19T07:15:32.410Z,95.50
2018-09-19T07:16:32.378Z,95.40
2018-09-19T07:17:32.382Z,95.55
2018-09-19T07:18:34.543Z,95.16
2018-09-19T07:19:32.262Z,95.26
2018-09-19T07:20:32.142Z,95.07
2018-09-19T07:21:32.146Z,95.16
2018-09-19T07:22:32.144Z,95.31
2018-09-19T07:23:32.063Z,94.92
2018-09-19T07:24:32.147Z,95.11
2018-09-19T07:25:32.030Z,95.21
2018-09-19T07:26:31.906Z,94.73
2018-09-19T07:27:31.908Z,93.48
2018-09-19T07:28:31.788Z,93.43
2018-09-19T07:29:31.909Z,93.52
2018-09-19T07:30:31.724Z,93.62
2018-09-19T07:31:31.724Z,93.04
2018-09-19T07:32:31.724Z,93.13
2018-09-19T07:33:31.606Z,92.85
2018-09-19T07:34:31.440Z,91.98
2018-09-19T07:35:31.442Z,91.69
2018-09-19T07:36:31.370Z,91.40
2018-09-19T07:37:31.370Z,91.25
2018-09-19T07:38:31.438Z,90.67
2018-09-19T07:39:31.254Z,88.51
2018-09-19T07:40:32.211Z,88.93
2018-09-19T07:41:31.211Z,88.84
2018-09-19T07:42:31.127Z,88.26
2018-09-19T07:43:31.140Z,88.26
2018-09-19T07:44:31.024Z,88.31
2018-09-19T07:45:30.973Z,88.11
2018-09-19T07:46:30.992Z,85.99
2018-09-19T07:47:30.901Z,86.86
2018-09-19T07:48:30.899Z,88.11
2018-09-19T07:49:30.861Z,86.28
2018-09-19T07:50:30.970Z,85.80
2018-09-19T07:51:30.736Z,83.96
2018-09-19T07:52:30.752Z,85.22
2018-09-19T07:53:30.619Z,84.20
2018-09-19T07:54:30.669Z,82.71
2018-09-19T07:55:30.647Z,83.00
2018-09-19T07:56:30.510Z,83.14
2018-09-19T07:57:30.502Z,82.11
2018-09-19T07:58:30.418Z,81.34
2018-09-19T07:59:30.383Z,79.25
2018-09-19T08:00:30.496Z,77.65
2018-09-19T08:01:30.307Z,74.30
2018-09-19T08:02:30.409Z,71.86
2018-09-19T08:03:30.268Z,67.95
2018-09-19T08:04:30.208Z,66.17
2018-09-19T08:05:30.149Z,62.52
2018-09-19T08:06:30.165Z,61.77
2018-09-19T08:07:30.062Z,60.25
2018-09-19T08:08:30.031Z,58.98
2018-09-19T08:09:30.070Z,57.00
2018-09-19T08:10:29.949Z,55.47
2018-09-19T08:11:29.914Z,54.72
2018-09-19T08:12:29.913Z,53.65
2018-09-19T08:13:29.833Z,54.06
2018-09-19T08:14:29.833Z,52.60
2018-09-19T08:15:29.794Z,51.04
2018-09-19T08:16:29.715Z,51.90
2018-09-19T08:17:29.681Z,52.19
2018-09-19T08:18:29.849Z,51.24
2018-09-19T08:19:29.595Z,50.46
2018-09-19T08:20:29.573Z,50.65
2018-09-19T08:21:29.561Z,50.36
2018-09-19T08:22:29.583Z,49.68
2018-09-19T08:23:29.562Z,49.68
2018-09-19T08:24:29.446Z,49.88
2018-09-19T08:25:29.450Z,49.97
2018-09-19T08:26:29.364Z,49.97
2018-09-19T08:27:29.330Z,49.97
2018-09-19T08:28:29.370Z,50.24
2018-09-19T08:29:29.365Z,50.21
2018-09-19T08:30:29.332Z,51.09
2018-09-19T08:31:29.210Z,50.60
2018-09-19T08:32:29.210Z,50.21
2018-09-19T08:33:29.131Z,51.09
2018-09-19T08:34:29.215Z,50.87
2018-09-19T08:35:29.093Z,51.55
2018-09-19T08:36:29.098Z,51.19
2018-09-19T08:37:28.993Z,51.02
2018-09-19T08:38:29.992Z,49.76
2018-09-19T08:39:29.007Z,49.44
2018-09-19T08:40:28.897Z,49.17
2018-09-19T08:41:28.858Z,48.34
2018-09-19T08:42:28.860Z,47.88
2018-09-19T08:43:28.792Z,47.36
2018-09-19T08:44:28.791Z,47.34
2018-09-19T08:45:28.750Z,48.41
2018-09-19T08:46:28.744Z,48.22
2018-09-19T08:47:28.747Z,48.00
2018-09-19T08:48:28.626Z,48.61
2018-09-19T08:49:28.629Z,47.56
2018-09-19T08:50:34.339Z,47.44
2018-09-19T08:51:28.562Z,48.29
2018-09-19T08:52:28.509Z,48.66
2018-09-19T08:53:28.434Z,49.83
2018-09-19T08:54:28.400Z,48.95
2018-09-19T08:55:28.393Z,49.15
2018-09-19T08:56:28.406Z,49.97
2018-09-19T08:57:29.282Z,51.11
2018-09-19T08:58:28.277Z,51.89
2018-09-19T08:59:28.281Z,51.89
2018-09-19T09:00:28.202Z,51.11
2018-09-19T09:01:28.206Z,50.95
2018-09-19T09:02:28.161Z,50.70
2018-09-19T09:03:28.078Z,49.17
2018-09-19T09:04:28.046Z,48.39
2018-09-19T09:05:28.083Z,48.41
2018-09-19T09:06:28.049Z,46.97
2018-09-19T09:07:27.955Z,46.80
2018-09-19T09:08:27.962Z,45.85
2018-09-19T09:09:27.935Z,45.09
2018-09-19T09:10:27.839Z,44.80
2018-09-19T09:11:27.839Z,44.73
2018-09-19T09:12:27.833Z,44.24
2018-09-19T09:13:27.734Z,44.16
2018-09-19T09:14:27.812Z,43.69
2018-09-19T09:15:27.692Z,43.49
2018-09-19T09:16:27.603Z,43.67
2018-09-19T09:17:27.575Z,43.92
2018-09-19T09:18:27.573Z,44.78
2018-09-19T09:19:27.573Z,45.92
2018-09-19T09:20:27.500Z,46.39
2018-09-19T09:21:29.418Z,46.88
2018-09-19T09:22:27.459Z,46.20
2018-09-19T09:23:27.369Z,46.12
2018-09-19T09:24:27.352Z,45.73
2018-09-19T09:25:27.375Z,46.41
2018-09-19T09:26:27.261Z,46.51
2018-09-19T09:27:27.296Z,46.51
2018-09-19T09:28:27.222Z,46.44
2018-09-19T09:29:27.142Z,46.07
2018-09-19T09:30:27.148Z,45.05
2018-09-19T09:31:27.107Z,46.22
2018-09-19T09:32:27.026Z,46.61
2018-09-19T09:33:27.032Z,45.64
2018-09-19T09:34:27.030Z,46.02
2018-09-19T09:35:26.992Z,44.66
2018-09-19T09:36:26.905Z,45.12
2018-09-19T09:37:26.871Z,45.12
2018-09-19T09:38:26.872Z,44.83
2018-09-19T09:39:26.876Z,45.03
2018-09-19T09:40:26.789Z,45.59
2018-09-19T09:41:26.760Z,45.74
2018-09-19T09:42:26.677Z,46.51
2018-09-19T09:43:26.735Z,46.42
2018-09-19T09:44:26.637Z,46.15
2018-09-19T09:45:26.560Z,46.69
2018-09-19T09:46:26.521Z,48.44
2018-09-19T09:47:26.520Z,48.25
2018-09-19T09:48:26.561Z,48.17
2018-09-19T09:49:26.437Z,48.29
2018-09-19T09:50:26.467Z,48.22
2018-09-19T09:51:26.386Z,46.78
2018-09-19T09:52:26.323Z,45.81
2018-09-19T09:53:26.506Z,46.00
2018-09-19T09:54:26.324Z,45.61
2018-09-19T09:55:26.206Z,44.83
2018-09-19T09:56:26.169Z,44.83
2018-09-19T09:57:26.170Z,44.73
2018-09-19T09:58:26.175Z,44.93
2018-09-19T09:59:26.054Z,45.12
2018-09-19T10:00:26.055Z,45.81
2018-09-19T10:01:26.059Z,45.22
2018-09-19T10:02:25.935Z,45.71
2018-09-19T10:03:26.177Z,45.88
2018-09-19T10:04:25.938Z,46.66
2018-09-19T10:05:25.942Z,46.59
2018-09-19T10:06:25.999Z,45.71
2018-09-19T10:07:25.822Z,44.07
2018-09-19T10:08:25.944Z,43.98
2018-09-19T10:09:25.822Z,44.76
2018-09-19T10:10:25.828Z,45.07
2018-09-19T10:11:25.705Z,44.48
2018-09-19T10:12:25.705Z,44.07
2018-09-19T10:13:25.707Z,44.34
2018-09-19T10:14:25.589Z,45.03
2018-09-19T10:15:25.715Z,45.03
2018-09-19T10:16:25.591Z,45.15
2018-09-19T10:17:25.471Z,45.90
2018-09-19T10:18:25.477Z,46.88
2018-09-19T10:19:25.473Z,47.10
2018-09-19T10:20:25.475Z,49.00
2018-09-19T10:21:25.355Z,49.58
2018-09-19T10:22:25.354Z,50.63
2018-09-19T10:23:25.236Z,51.50
2018-09-19T10:24:25.237Z,51.89
2018-09-19T10:25:25.358Z,52.19
2018-09-19T10:26:25.121Z,51.70
2018-09-19T10:27:25.130Z,51.72
2018-09-19T10:28:25.120Z,50.38
2018-09-19T10:29:25.011Z,49.63
2018-09-19T10:30:25.124Z,49.44
2018-09-19T10:31:25.005Z,48.44
2018-09-19T10:32:24.885Z,48.73
2018-09-19T10:33:25.019Z,48.56
2018-09-19T10:34:24.887Z,48.17
2018-09-19T10:35:24.935Z,48.17
2018-09-19T10:36:24.769Z,47.59
2018-09-19T10:37:24.775Z,46.64
2018-09-19T10:38:24.772Z,46.44
2018-09-19T10:39:24.651Z,46.37
2018-09-19T10:40:24.656Z,46.08
2018-09-19T10:41:24.652Z,47.03
2018-09-19T10:42:24.536Z,47.42
2018-09-19T10:43:24.654Z,46.86
2018-09-19T10:44:25.620Z,46.10
2018-09-19T10:45:24.418Z,46.15
2018-09-19T10:46:24.537Z,47.32
2018-09-19T10:47:24.420Z,46.86
2018-09-19T10:48:24.300Z,46.30
2018-09-19T10:49:24.323Z,45.78
2018-09-19T10:50:24.303Z,46.17
2018-09-19T10:51:24.302Z,46.54
2018-09-19T10:52:24.182Z,47.39
2018-09-19T10:53:24.189Z,48.34
2018-09-19T10:54:24.186Z,49.27
2018-09-19T10:55:24.069Z,50.41
2018-09-19T10:56:24.187Z,51.65
2018-09-19T10:57:24.069Z,52.23
2018-09-19T10:58:23.948Z,50.92
2018-09-19T10:59:23.952Z,50.53
2018-09-19T11:00:23.959Z,49.27
2018-09-19T11:01:23.954Z,49.29
2018-09-19T11:02:23.835Z,49.49
2018-09-19T11:03:23.776Z,49.22
2018-09-19T11:04:23.651Z,48.25
2018-09-19T11:05:23.652Z,48.36
2018-09-19T11:06:23.772Z,48.25
2018-09-19T11:07:23.532Z,48.51
2018-09-19T11:08:23.536Z,49.27
2018-09-19T11:09:23.651Z,49.56
2018-09-19T11:10:23.413Z,50.36
2018-09-19T11:11:23.412Z,49.71
2018-09-19T11:12:23.368Z,48.66
2018-09-19T11:13:23.293Z,48.10
2018-09-19T11:14:23.295Z,46.69
2018-09-19T11:15:23.294Z,46.64
2018-09-19T11:16:23.176Z,46.95
2018-09-19T11:17:23.131Z,46.88
2018-09-19T11:18:23.183Z,46.12
2018-09-19T11:19:23.058Z,44.38
2018-09-19T11:20:23.017Z,44.48
2018-09-19T11:21:23.014Z,45.03
2018-09-19T11:22:22.938Z,46.76
2018-09-19T11:23:22.945Z,46.39
2018-09-19T11:24:22.898Z,45.73
2018-09-19T11:25:22.899Z,45.68
2018-09-19T11:26:22.889Z,47.20
2018-09-19T11:27:22.780Z,48.15
2018-09-19T11:28:22.780Z,48.44
2018-09-19T11:29:22.780Z,48.36
2018-09-19T11:30:22.661Z,47.59
2018-09-19T11:31:22.662Z,47.69
2018-09-19T11:32:22.662Z,48.63
2018-09-19T11:33:22.543Z,49.32
2018-09-19T11:34:22.594Z,48.27
2018-09-19T11:35:22.463Z,48.34
2018-09-19T11:36:22.430Z,49.27
2018-09-19T11:37:22.427Z,49.85
2018-09-19T11:38:22.344Z,49.58
2018-09-19T11:39:22.360Z,49.32
2018-09-19T11:40:22.312Z,48.75
2018-09-19T11:41:22.227Z,48.49
2018-09-19T11:42:22.194Z,46.97
2018-09-19T11:43:22.285Z,46.22
2018-09-19T11:44:22.194Z,45.95
2018-09-19T11:45:22.080Z,45.17
2018-09-19T11:46:22.075Z,45.25
2018-09-19T11:47:22.077Z,45.90
2018-09-19T11:48:21.961Z,45.90
2018-09-19T11:49:21.992Z,45.81
2018-09-19T11:50:21.990Z,45.81
2018-09-19T11:51:21.880Z,45.81
2018-09-19T11:52:21.841Z,46.37
2018-09-19T11:53:21.841Z,47.13
2018-09-19T11:54:21.772Z,46.39
2018-09-19T11:55:21.764Z,45.34
2018-09-19T11:56:21.726Z,44.76
2018-09-19T11:57:21.650Z,45.05
2018-09-19T11:58:21.607Z,45.32
2018-09-19T11:59:21.727Z,45.83
2018-09-19T12:00:21.608Z,44.27
2018-09-19T12:01:21.492Z,43.59
2018-09-19T12:02:21.490Z,44.34
2018-09-19T12:03:21.404Z,45.83
2018-09-19T12:04:42.402Z,44.95
2018-09-19T12:05:21.373Z,44.76
2018-09-19T12:06:21.373Z,44.46
2018-09-19T12:07:21.305Z,44.95
2018-09-19T12:08:21.257Z,44.62
2018-09-19T12:09:21.293Z,45.57
2018-09-19T12:10:21.164Z,46.71
2018-09-19T12:11:21.138Z,46.25
2018-09-19T12:12:21.139Z,46.25
2018-09-19T12:13:21.069Z,46.44
2018-09-19T12:14:21.061Z,45.67
2018-09-19T12:15:21.024Z,46.25
2018-09-19T12:16:21.024Z,46.61
2018-09-19T12:17:20.906Z,47.10
2018-09-19T12:18:20.906Z,47.10
2018-09-19T12:19:20.866Z,47.56
2018-09-19T12:20:20.839Z,48.03
2018-09-19T12:21:20.912Z,47.74
2018-09-19T12:22:20.718Z,47.25
2018-09-19T12:23:20.675Z,47.17
2018-09-19T12:24:20.685Z,46.61
2018-09-19T12:25:20.601Z,46.15
2018-09-19T12:26:20.625Z,46.61
2018-09-19T12:27:20.553Z,46.73
2018-09-19T12:28:20.480Z,47.00
2018-09-19T12:29:20.447Z,47.39
2018-09-19T12:30:20.487Z,47.78
2018-09-19T12:31:20.437Z,47.59
2018-09-19T12:32:20.361Z,47.59
2018-09-19T12:33:20.363Z,47.69
2018-09-19T12:34:20.321Z,47.32
2018-09-19T12:35:20.239Z,46.83
2018-09-19T12:36:20.243Z,46.34
2018-09-19T12:37:20.211Z,45.59
2018-09-19T12:38:20.124Z,45.78
2018-09-19T12:39:20.125Z,46.00
2018-09-19T12:40:20.106Z,45.08
2018-09-19T12:41:20.110Z,46.23
2018-09-19T12:42:20.008Z,47.27
2018-09-19T12:43:19.971Z,47.74
2018-09-19T12:44:19.884Z,48.13
2018-09-19T12:45:19.855Z,48.41
2018-09-19T12:46:19.905Z,48.68
2018-09-19T12:47:19.775Z,48.58
2018-09-19T12:48:19.738Z,48.32
2018-09-19T12:49:19.862Z,47.76
2018-09-19T12:50:19.658Z,46.81
2018-09-19T12:51:24.342Z,46.25
2018-09-19T12:52:19.669Z,45.78
2018-09-19T12:53:19.594Z,45.20